sensor_id;sensor_type;location;lat;lon;timestamp;P1;durP1;ratioP1;P2;durP2;ratioP2
583;SDS011;27024;54.068;12.116;2023-05-10T00:01:01;4.68;;;3.25;;
583;SDS011;27024;54.068;12.116;2023-05-10T00:03:28;6.20;;;3.85;;
583;SDS011;27024;54.068;12.116;2023-05-10T00:05:56;4.57;;;2.85;;
583;SDS011;27024;54.068;12.116;2023-05-10T00:08:23;5.38;;;3.25;;
583;SDS011;27024;54.068;12.116;2023-05-10T00:10:49;6.22;;;3.13;;
583;SDS011;27024;54.068;12.116;2023-05-10T00:13:16;6.10;;;3.20;;
583;SDS011;27024;54.068;12.116;2023-05-10T00:15:43;6.20;;;3.63;;
583;SDS011;27024;54.068;12.116;2023-05-10T00:18:10;6.50;;;2.88;;
583;SDS011;27024;54.068;12.116;2023-05-10T00:20:37;6.30;;;3.30;;
583;SDS011;27024;54.068;12.116;2023-05-10T00:23:04;6.05;;;2.83;;
583;SDS011;27024;54.068;12.116;2023-05-10T00:25:31;8.00;;;3.00;;
583;SDS011;27024;54.068;12.116;2023-05-10T00:27:57;6.50;;;2.90;;
583;SDS011;27024;54.068;12.116;2023-05-10T00:30:24;5.28;;;3.17;;
583;SDS011;27024;54.068;12.116;2023-05-10T00:32:51;5.65;;;4.03;;
583;SDS011;27024;54.068;12.116;2023-05-10T00:35:18;6.45;;;2.83;;
583;SDS011;27024;54.068;12.116;2023-05-10T00:37:45;10.77;;;3.25;;
583;SDS011;27024;54.068;12.116;2023-05-10T00:40:12;5.60;;;3.00;;
583;SDS011;27024;54.068;12.116;2023-05-10T00:42:39;8.27;;;2.90;;
583;SDS011;27024;54.068;12.116;2023-05-10T00:45:07;5.90;;;3.58;;
583;SDS011;27024;54.068;12.116;2023-05-10T00:47:34;4.85;;;3.20;;
583;SDS011;27024;54.068;12.116;2023-05-10T00:50:01;4.47;;;3.10;;
583;SDS011;27024;54.068;12.116;2023-05-10T00:52:28;5.75;;;3.15;;
583;SDS011;27024;54.068;12.116;2023-05-10T00:54:56;6.43;;;3.42;;
583;SDS011;27024;54.068;12.116;2023-05-10T00:57:24;6.65;;;3.47;;
583;SDS011;27024;54.068;12.116;2023-05-10T00:59:50;4.50;;;2.90;;
583;SDS011;27024;54.068;12.116;2023-05-10T01:02:18;5.32;;;3.78;;
583;SDS011;27024;54.068;12.116;2023-05-10T01:04:45;7.22;;;3.45;;
583;SDS011;27024;54.068;12.116;2023-05-10T01:07:11;8.25;;;3.63;;
583;SDS011;27024;54.068;12.116;2023-05-10T01:09:38;6.90;;;3.30;;
583;SDS011;27024;54.068;12.116;2023-05-10T01:12:05;7.00;;;3.67;;
583;SDS011;27024;54.068;12.116;2023-05-10T01:14:33;6.82;;;3.30;;
583;SDS011;27024;54.068;12.116;2023-05-10T01:17:02;8.00;;;3.42;;
583;SDS011;27024;54.068;12.116;2023-05-10T01:19:31;6.70;;;3.30;;
583;SDS011;27024;54.068;12.116;2023-05-10T01:33:17;6.18;;;3.40;;
583;SDS011;27024;54.068;12.116;2023-05-10T01:40:48;5.75;;;3.30;;
583;SDS011;27024;54.068;12.116;2023-05-10T01:43:21;5.50;;;3.55;;
583;SDS011;27024;54.068;12.116;2023-05-10T01:48:30;7.25;;;3.40;;
583;SDS011;27024;54.068;12.116;2023-05-10T01:50:59;5.60;;;3.60;;
583;SDS011;27024;54.068;12.116;2023-05-10T01:53:26;6.53;;;3.85;;
583;SDS011;27024;54.068;12.116;2023-05-10T01:55:54;5.88;;;3.60;;
583;SDS011;27024;54.068;12.116;2023-05-10T01:58:23;7.40;;;4.13;;
583;SDS011;27024;54.068;12.116;2023-05-10T02:00:54;6.03;;;4.00;;
583;SDS011;27024;54.068;12.116;2023-05-10T02:03:23;6.28;;;4.18;;
583;SDS011;27024;54.068;12.116;2023-05-10T02:05:51;6.38;;;3.90;;
583;SDS011;27024;54.068;12.116;2023-05-10T02:08:19;5.47;;;3.65;;
583;SDS011;27024;54.068;12.116;2023-05-10T02:10:49;6.28;;;3.63;;
583;SDS011;27024;54.068;12.116;2023-05-10T02:13:18;6.13;;;4.13;;
583;SDS011;27024;54.068;12.116;2023-05-10T02:15:49;6.93;;;3.85;;
583;SDS011;27024;54.068;12.116;2023-05-10T02:18:17;6.88;;;4.18;;
583;SDS011;27024;54.068;12.116;2023-05-10T02:20:46;5.75;;;3.80;;
583;SDS011;27024;54.068;12.116;2023-05-10T02:23:14;7.72;;;4.35;;
583;SDS011;27024;54.068;12.116;2023-05-10T02:25:43;6.75;;;3.92;;
583;SDS011;27024;54.068;12.116;2023-05-10T02:28:12;5.88;;;3.63;;
583;SDS011;27024;54.068;12.116;2023-05-10T02:30:40;6.10;;;3.88;;
583;SDS011;27024;54.068;12.116;2023-05-10T02:33:08;6.60;;;4.10;;
583;SDS011;27024;54.068;12.116;2023-05-10T02:35:35;8.98;;;4.00;;
583;SDS011;27024;54.068;12.116;2023-05-10T02:38:03;7.50;;;3.85;;
583;SDS011;27024;54.068;12.116;2023-05-10T02:40:32;8.60;;;3.70;;
583;SDS011;27024;54.068;12.116;2023-05-10T02:43:01;7.80;;;4.18;;
583;SDS011;27024;54.068;12.116;2023-05-10T02:45:29;5.72;;;4.78;;
583;SDS011;27024;54.068;12.116;2023-05-10T02:47:59;10.25;;;4.53;;
583;SDS011;27024;54.068;12.116;2023-05-10T02:50:27;7.93;;;3.95;;
583;SDS011;27024;54.068;12.116;2023-05-10T02:52:59;5.45;;;3.45;;
583;SDS011;27024;54.068;12.116;2023-05-10T03:00:26;6.05;;;4.05;;
583;SDS011;27024;54.068;12.116;2023-05-10T03:02:53;7.30;;;4.22;;
583;SDS011;27024;54.068;12.116;2023-05-10T03:05:20;6.43;;;3.80;;
583;SDS011;27024;54.068;12.116;2023-05-10T03:07:47;7.15;;;4.25;;
583;SDS011;27024;54.068;12.116;2023-05-10T03:10:14;8.65;;;4.40;;
583;SDS011;27024;54.068;12.116;2023-05-10T03:20:50;9.48;;;4.10;;
583;SDS011;27024;54.068;12.116;2023-05-10T03:25:53;8.20;;;4.82;;
583;SDS011;27024;54.068;12.116;2023-05-10T03:28:20;9.68;;;4.57;;
583;SDS011;27024;54.068;12.116;2023-05-10T03:30:48;6.28;;;4.05;;
583;SDS011;27024;54.068;12.116;2023-05-10T03:33:16;6.40;;;4.00;;
583;SDS011;27024;54.068;12.116;2023-05-10T03:35:43;8.02;;;4.13;;
583;SDS011;27024;54.068;12.116;2023-05-10T03:38:12;7.03;;;4.13;;
583;SDS011;27024;54.068;12.116;2023-05-10T03:40:39;7.07;;;4.13;;
583;SDS011;27024;54.068;12.116;2023-05-10T03:43:06;8.13;;;4.32;;
583;SDS011;27024;54.068;12.116;2023-05-10T03:45:32;8.40;;;4.20;;
583;SDS011;27024;54.068;12.116;2023-05-10T03:47:59;7.13;;;4.57;;
583;SDS011;27024;54.068;12.116;2023-05-10T03:50:26;9.77;;;3.92;;
583;SDS011;27024;54.068;12.116;2023-05-10T03:52:53;8.05;;;5.15;;
583;SDS011;27024;54.068;12.116;2023-05-10T03:55:20;7.82;;;4.90;;
583;SDS011;27024;54.068;12.116;2023-05-10T03:57:47;8.05;;;4.28;;
583;SDS011;27024;54.068;12.116;2023-05-10T04:00:16;6.43;;;4.43;;
583;SDS011;27024;54.068;12.116;2023-05-10T04:02:43;8.70;;;4.25;;
583;SDS011;27024;54.068;12.116;2023-05-10T04:05:11;9.50;;;4.97;;
583;SDS011;27024;54.068;12.116;2023-05-10T04:07:39;8.07;;;4.32;;
583;SDS011;27024;54.068;12.116;2023-05-10T04:10:05;7.90;;;4.93;;
583;SDS011;27024;54.068;12.116;2023-05-10T04:12:33;6.18;;;4.40;;
583;SDS011;27024;54.068;12.116;2023-05-10T04:15:00;8.80;;;4.97;;
583;SDS011;27024;54.068;12.116;2023-05-10T04:17:27;7.15;;;5.20;;
583;SDS011;27024;54.068;12.116;2023-05-10T04:19:54;7.10;;;5.20;;
583;SDS011;27024;54.068;12.116;2023-05-10T04:22:22;6.97;;;4.43;;
583;SDS011;27024;54.068;12.116;2023-05-10T04:24:49;7.50;;;5.28;;
583;SDS011;27024;54.068;12.116;2023-05-10T04:27:16;8.13;;;5.10;;
583;SDS011;27024;54.068;12.116;2023-05-10T04:29:42;6.80;;;4.38;;
583;SDS011;27024;54.068;12.116;2023-05-10T04:32:09;8.60;;;5.70;;
583;SDS011;27024;54.068;12.116;2023-05-10T04:34:36;8.00;;;4.35;;
583;SDS011;27024;54.068;12.116;2023-05-10T04:37:04;10.38;;;4.55;;
583;SDS011;27024;54.068;12.116;2023-05-10T04:39:30;5.68;;;3.30;;
583;SDS011;27024;54.068;12.116;2023-05-10T04:41:57;8.30;;;4.97;;
583;SDS011;27024;54.068;12.116;2023-05-10T04:44:24;5.60;;;3.50;;
583;SDS011;27024;54.068;12.116;2023-05-10T04:46:51;9.70;;;4.88;;
583;SDS011;27024;54.068;12.116;2023-05-10T04:49:17;7.28;;;3.95;;
583;SDS011;27024;54.068;12.116;2023-05-10T04:51:44;6.18;;;4.22;;
583;SDS011;27024;54.068;12.116;2023-05-10T04:54:11;9.10;;;4.28;;
583;SDS011;27024;54.068;12.116;2023-05-10T04:56:38;6.88;;;4.57;;
583;SDS011;27024;54.068;12.116;2023-05-10T04:59:05;6.32;;;3.88;;
583;SDS011;27024;54.068;12.116;2023-05-10T05:01:31;7.05;;;4.38;;
583;SDS011;27024;54.068;12.116;2023-05-10T05:03:59;6.07;;;3.88;;
583;SDS011;27024;54.068;12.116;2023-05-10T05:06:26;6.93;;;4.03;;
583;SDS011;27024;54.068;12.116;2023-05-10T05:08:53;5.57;;;3.22;;
583;SDS011;27024;54.068;12.116;2023-05-10T05:11:20;5.72;;;4.10;;
583;SDS011;27024;54.068;12.116;2023-05-10T05:13:47;7.43;;;3.70;;
583;SDS011;27024;54.068;12.116;2023-05-10T05:16:14;5.50;;;3.70;;
583;SDS011;27024;54.068;12.116;2023-05-10T05:18:41;7.38;;;3.70;;
583;SDS011;27024;54.068;12.116;2023-05-10T05:21:17;6.32;;;3.90;;
583;SDS011;27024;54.068;12.116;2023-05-10T05:23:45;8.88;;;3.90;;
583;SDS011;27024;54.068;12.116;2023-05-10T05:26:12;8.82;;;4.22;;
583;SDS011;27024;54.068;12.116;2023-05-10T05:28:39;6.93;;;3.83;;
583;SDS011;27024;54.068;12.116;2023-05-10T05:31:06;7.75;;;3.95;;
583;SDS011;27024;54.068;12.116;2023-05-10T05:33:34;6.60;;;3.53;;
583;SDS011;27024;54.068;12.116;2023-05-10T05:36:02;5.22;;;3.47;;
583;SDS011;27024;54.068;12.116;2023-05-10T05:38:29;5.25;;;3.58;;
583;SDS011;27024;54.068;12.116;2023-05-10T05:40:56;7.53;;;4.20;;
583;SDS011;27024;54.068;12.116;2023-05-10T05:43:23;7.10;;;4.53;;
583;SDS011;27024;54.068;12.116;2023-05-10T05:45:54;7.72;;;3.95;;
583;SDS011;27024;54.068;12.116;2023-05-10T05:48:21;6.38;;;4.07;;
583;SDS011;27024;54.068;12.116;2023-05-10T05:50:48;6.93;;;3.70;;
583;SDS011;27024;54.068;12.116;2023-05-10T05:53:14;7.57;;;2.92;;
583;SDS011;27024;54.068;12.116;2023-05-10T05:55:51;6.68;;;3.50;;
583;SDS011;27024;54.068;12.116;2023-05-10T05:58:21;6.15;;;3.78;;
583;SDS011;27024;54.068;12.116;2023-05-10T06:00:48;6.35;;;3.60;;
583;SDS011;27024;54.068;12.116;2023-05-10T06:03:15;6.25;;;3.58;;
583;SDS011;27024;54.068;12.116;2023-05-10T06:05:42;10.48;;;3.63;;
583;SDS011;27024;54.068;12.116;2023-05-10T06:08:09;5.63;;;3.65;;
583;SDS011;27024;54.068;12.116;2023-05-10T06:10:37;5.95;;;3.70;;
583;SDS011;27024;54.068;12.116;2023-05-10T06:13:04;6.25;;;3.22;;
583;SDS011;27024;54.068;12.116;2023-05-10T06:15:31;6.43;;;3.80;;
583;SDS011;27024;54.068;12.116;2023-05-10T06:17:59;5.18;;;3.58;;
583;SDS011;27024;54.068;12.116;2023-05-10T06:20:26;8.40;;;2.88;;
583;SDS011;27024;54.068;12.116;2023-05-10T06:22:53;5.70;;;3.88;;
583;SDS011;27024;54.068;12.116;2023-05-10T06:25:20;5.90;;;3.35;;
583;SDS011;27024;54.068;12.116;2023-05-10T06:27:47;6.32;;;3.65;;
583;SDS011;27024;54.068;12.116;2023-05-10T06:32:46;5.88;;;3.10;;
583;SDS011;27024;54.068;12.116;2023-05-10T06:35:13;9.77;;;4.05;;
583;SDS011;27024;54.068;12.116;2023-05-10T06:37:41;8.82;;;3.53;;
583;SDS011;27024;54.068;12.116;2023-05-10T06:40:07;6.35;;;3.30;;
583;SDS011;27024;54.068;12.116;2023-05-10T06:42:35;7.25;;;4.47;;
583;SDS011;27024;54.068;12.116;2023-05-10T06:45:02;8.85;;;3.83;;
583;SDS011;27024;54.068;12.116;2023-05-10T06:47:29;5.15;;;3.70;;
583;SDS011;27024;54.068;12.116;2023-05-10T06:49:56;5.20;;;3.20;;
583;SDS011;27024;54.068;12.116;2023-05-10T06:52:23;6.95;;;3.20;;
583;SDS011;27024;54.068;12.116;2023-05-10T06:54:50;4.88;;;3.00;;
583;SDS011;27024;54.068;12.116;2023-05-10T06:57:16;8.32;;;3.78;;
583;SDS011;27024;54.068;12.116;2023-05-10T06:59:58;7.63;;;3.58;;
583;SDS011;27024;54.068;12.116;2023-05-10T07:02:25;4.88;;;3.35;;
583;SDS011;27024;54.068;12.116;2023-05-10T07:04:52;4.93;;;3.25;;
583;SDS011;27024;54.068;12.116;2023-05-10T07:07:19;6.97;;;3.28;;
583;SDS011;27024;54.068;12.116;2023-05-10T07:09:46;6.93;;;3.60;;
583;SDS011;27024;54.068;12.116;2023-05-10T07:12:13;5.22;;;3.65;;
583;SDS011;27024;54.068;12.116;2023-05-10T07:14:41;7.07;;;3.40;;
583;SDS011;27024;54.068;12.116;2023-05-10T07:17:08;6.32;;;3.60;;
583;SDS011;27024;54.068;12.116;2023-05-10T07:19:36;6.93;;;3.30;;
583;SDS011;27024;54.068;12.116;2023-05-10T07:22:03;5.88;;;3.53;;
583;SDS011;27024;54.068;12.116;2023-05-10T07:24:30;5.28;;;3.00;;
583;SDS011;27024;54.068;12.116;2023-05-10T07:26:57;7.03;;;3.22;;
583;SDS011;27024;54.068;12.116;2023-05-10T07:29:24;5.70;;;2.95;;
583;SDS011;27024;54.068;12.116;2023-05-10T07:31:51;5.22;;;3.00;;
583;SDS011;27024;54.068;12.116;2023-05-10T07:34:21;7.43;;;3.28;;
583;SDS011;27024;54.068;12.116;2023-05-10T07:36:48;6.13;;;3.08;;
583;SDS011;27024;54.068;12.116;2023-05-10T07:39:14;10.35;;;2.88;;
583;SDS011;27024;54.068;12.116;2023-05-10T07:41:52;4.40;;;3.20;;
583;SDS011;27024;54.068;12.116;2023-05-10T07:44:19;6.25;;;3.97;;
583;SDS011;27024;54.068;12.116;2023-05-10T07:46:47;9.55;;;4.28;;
583;SDS011;27024;54.068;12.116;2023-05-10T07:49:14;5.95;;;2.83;;
583;SDS011;27024;54.068;12.116;2023-05-10T07:51:41;4.45;;;2.80;;
583;SDS011;27024;54.068;12.116;2023-05-10T07:54:08;8.70;;;3.28;;
583;SDS011;27024;54.068;12.116;2023-05-10T07:56:35;8.45;;;3.17;;
583;SDS011;27024;54.068;12.116;2023-05-10T07:59:03;4.65;;;2.80;;
583;SDS011;27024;54.068;12.116;2023-05-10T08:01:31;8.05;;;3.38;;
583;SDS011;27024;54.068;12.116;2023-05-10T08:03:59;6.95;;;2.65;;
583;SDS011;27024;54.068;12.116;2023-05-10T08:06:28;5.88;;;2.80;;
583;SDS011;27024;54.068;12.116;2023-05-10T08:08:56;5.80;;;2.80;;
583;SDS011;27024;54.068;12.116;2023-05-10T08:11:23;7.95;;;2.97;;
583;SDS011;27024;54.068;12.116;2023-05-10T08:13:50;4.65;;;3.28;;
583;SDS011;27024;54.068;12.116;2023-05-10T08:16:17;6.30;;;2.95;;
583;SDS011;27024;54.068;12.116;2023-05-10T08:18:44;5.20;;;3.00;;
583;SDS011;27024;54.068;12.116;2023-05-10T08:21:14;5.85;;;2.70;;
583;SDS011;27024;54.068;12.116;2023-05-10T08:23:41;5.20;;;2.95;;
583;SDS011;27024;54.068;12.116;2023-05-10T08:26:10;4.60;;;2.97;;
583;SDS011;27024;54.068;12.116;2023-05-10T08:28:37;7.47;;;3.15;;
583;SDS011;27024;54.068;12.116;2023-05-10T08:31:05;8.43;;;2.72;;
583;SDS011;27024;54.068;12.116;2023-05-10T08:33:32;6.10;;;3.03;;
583;SDS011;27024;54.068;12.116;2023-05-10T08:35:59;6.75;;;3.15;;
583;SDS011;27024;54.068;12.116;2023-05-10T08:38:26;5.30;;;2.92;;
583;SDS011;27024;54.068;12.116;2023-05-10T08:40:53;5.07;;;3.08;;
583;SDS011;27024;54.068;12.116;2023-05-10T08:43:28;6.00;;;3.22;;
583;SDS011;27024;54.068;12.116;2023-05-10T08:45:56;5.30;;;2.83;;
583;SDS011;27024;54.068;12.116;2023-05-10T08:48:27;6.97;;;3.38;;
583;SDS011;27024;54.068;12.116;2023-05-10T08:50:55;4.95;;;2.72;;
583;SDS011;27024;54.068;12.116;2023-05-10T08:53:26;6.93;;;3.28;;
583;SDS011;27024;54.068;12.116;2023-05-10T08:55:55;8.93;;;3.17;;
583;SDS011;27024;54.068;12.116;2023-05-10T08:58:22;4.63;;;3.33;;
583;SDS011;27024;54.068;12.116;2023-05-10T09:00:49;6.72;;;2.83;;
583;SDS011;27024;54.068;12.116;2023-05-10T09:03:19;5.07;;;3.45;;
583;SDS011;27024;54.068;12.116;2023-05-10T09:05:46;4.88;;;2.60;;
583;SDS011;27024;54.068;12.116;2023-05-10T09:08:14;4.60;;;2.70;;
583;SDS011;27024;54.068;12.116;2023-05-10T09:10:43;5.75;;;2.70;;
583;SDS011;27024;54.068;12.116;2023-05-10T09:13:12;4.47;;;3.17;;
583;SDS011;27024;54.068;12.116;2023-05-10T09:15:42;8.07;;;2.75;;
583;SDS011;27024;54.068;12.116;2023-05-10T09:18:10;6.82;;;3.17;;
583;SDS011;27024;54.068;12.116;2023-05-10T09:20:38;4.75;;;2.65;;
583;SDS011;27024;54.068;12.116;2023-05-10T09:23:05;7.10;;;3.00;;
583;SDS011;27024;54.068;12.116;2023-05-10T09:25:32;5.38;;;2.97;;
583;SDS011;27024;54.068;12.116;2023-05-10T09:28:05;5.47;;;3.10;;
583;SDS011;27024;54.068;12.116;2023-05-10T09:30:33;3.88;;;2.63;;
583;SDS011;27024;54.068;12.116;2023-05-10T09:33:01;4.43;;;2.70;;
583;SDS011;27024;54.068;12.116;2023-05-10T09:35:30;5.50;;;2.53;;
583;SDS011;27024;54.068;12.116;2023-05-10T09:38:02;6.50;;;2.80;;
583;SDS011;27024;54.068;12.116;2023-05-10T09:40:30;5.32;;;2.50;;
583;SDS011;27024;54.068;12.116;2023-05-10T09:42:59;4.38;;;3.38;;
583;SDS011;27024;54.068;12.116;2023-05-10T09:48:09;4.90;;;3.40;;
583;SDS011;27024;54.068;12.116;2023-05-10T09:50:36;5.82;;;2.60;;
583;SDS011;27024;54.068;12.116;2023-05-10T09:53:03;3.75;;;2.90;;
583;SDS011;27024;54.068;12.116;2023-05-10T09:55:43;6.38;;;2.90;;
583;SDS011;27024;54.068;12.116;2023-05-10T09:58:12;4.93;;;3.00;;
583;SDS011;27024;54.068;12.116;2023-05-10T10:00:41;7.65;;;2.90;;
583;SDS011;27024;54.068;12.116;2023-05-10T10:03:17;4.88;;;3.13;;
583;SDS011;27024;54.068;12.116;2023-05-10T10:05:45;4.97;;;3.78;;
583;SDS011;27024;54.068;12.116;2023-05-10T10:08:13;4.20;;;2.45;;
583;SDS011;27024;54.068;12.116;2023-05-10T10:10:41;3.45;;;2.25;;
583;SDS011;27024;54.068;12.116;2023-05-10T10:13:08;7.00;;;3.25;;
583;SDS011;27024;54.068;12.116;2023-05-10T10:15:35;7.72;;;2.72;;
583;SDS011;27024;54.068;12.116;2023-05-10T10:18:02;4.40;;;2.47;;
583;SDS011;27024;54.068;12.116;2023-05-10T10:20:33;4.30;;;3.35;;
583;SDS011;27024;54.068;12.116;2023-05-10T10:22:59;4.60;;;2.70;;
583;SDS011;27024;54.068;12.116;2023-05-10T10:25:26;4.50;;;2.55;;
583;SDS011;27024;54.068;12.116;2023-05-10T10:36:06;3.90;;;2.95;;
583;SDS011;27024;54.068;12.116;2023-05-10T10:39:16;3.95;;;2.83;;
583;SDS011;27024;54.068;12.116;2023-05-10T10:41:35;3.90;;;2.67;;
583;SDS011;27024;54.068;12.116;2023-05-10T10:52:24;3.50;;;2.83;;
583;SDS011;27024;54.068;12.116;2023-05-10T10:54:59;5.63;;;2.33;;
583;SDS011;27024;54.068;12.116;2023-05-10T10:57:27;7.45;;;3.40;;
583;SDS011;27024;54.068;12.116;2023-05-10T11:00:17;3.30;;;2.30;;
583;SDS011;27024;54.068;12.116;2023-05-10T11:05:25;4.07;;;2.55;;
583;SDS011;27024;54.068;12.116;2023-05-10T11:13:26;4.22;;;2.55;;
583;SDS011;27024;54.068;12.116;2023-05-10T11:18:26;3.17;;;2.63;;
583;SDS011;27024;54.068;12.116;2023-05-10T11:20:57;3.53;;;2.05;;
583;SDS011;27024;54.068;12.116;2023-05-10T11:23:30;3.40;;;3.10;;
583;SDS011;27024;54.068;12.116;2023-05-10T11:25:58;3.25;;;2.83;;
583;SDS011;27024;54.068;12.116;2023-05-10T11:28:27;7.43;;;2.92;;
583;SDS011;27024;54.068;12.116;2023-05-10T11:30:54;5.05;;;2.60;;
583;SDS011;27024;54.068;12.116;2023-05-10T11:33:22;4.47;;;2.47;;
583;SDS011;27024;54.068;12.116;2023-05-10T11:35:49;3.92;;;2.40;;
583;SDS011;27024;54.068;12.116;2023-05-10T11:38:15;6.68;;;3.10;;
583;SDS011;27024;54.068;12.116;2023-05-10T11:40:42;3.95;;;2.35;;
583;SDS011;27024;54.068;12.116;2023-05-10T11:43:09;4.95;;;3.05;;
583;SDS011;27024;54.068;12.116;2023-05-10T11:45:37;5.43;;;3.22;;
583;SDS011;27024;54.068;12.116;2023-05-10T11:48:04;3.83;;;2.75;;
583;SDS011;27024;54.068;12.116;2023-05-10T11:50:31;4.38;;;2.58;;
583;SDS011;27024;54.068;12.116;2023-05-10T11:52:58;4.38;;;3.45;;
583;SDS011;27024;54.068;12.116;2023-05-10T11:55:25;5.82;;;2.10;;
583;SDS011;27024;54.068;12.116;2023-05-10T11:57:53;4.72;;;2.67;;
583;SDS011;27024;54.068;12.116;2023-05-10T12:00:20;3.50;;;2.67;;
583;SDS011;27024;54.068;12.116;2023-05-10T12:02:48;3.25;;;2.40;;
583;SDS011;27024;54.068;12.116;2023-05-10T12:05:15;3.85;;;2.95;;
583;SDS011;27024;54.068;12.116;2023-05-10T12:07:42;4.40;;;2.40;;
583;SDS011;27024;54.068;12.116;2023-05-10T12:10:10;5.75;;;1.88;;
583;SDS011;27024;54.068;12.116;2023-05-10T12:12:44;4.20;;;2.65;;
583;SDS011;27024;54.068;12.116;2023-05-10T12:15:13;4.68;;;2.00;;
583;SDS011;27024;54.068;12.116;2023-05-10T12:17:43;3.08;;;2.70;;
583;SDS011;27024;54.068;12.116;2023-05-10T12:22:49;4.78;;;2.65;;
583;SDS011;27024;54.068;12.116;2023-05-10T12:25:18;3.88;;;2.28;;
583;SDS011;27024;54.068;12.116;2023-05-10T12:30:23;5.03;;;2.58;;
583;SDS011;27024;54.068;12.116;2023-05-10T12:32:59;5.32;;;2.80;;
583;SDS011;27024;54.068;12.116;2023-05-10T12:35:43;4.65;;;3.15;;
583;SDS011;27024;54.068;12.116;2023-05-10T12:38:32;4.03;;;2.40;;
583;SDS011;27024;54.068;12.116;2023-05-10T12:41:01;6.07;;;3.05;;
583;SDS011;27024;54.068;12.116;2023-05-10T12:43:30;5.55;;;2.40;;
583;SDS011;27024;54.068;12.116;2023-05-10T12:45:57;5.30;;;3.22;;
583;SDS011;27024;54.068;12.116;2023-05-10T12:48:24;3.13;;;2.20;;
583;SDS011;27024;54.068;12.116;2023-05-10T12:50:51;6.57;;;2.50;;
583;SDS011;27024;54.068;12.116;2023-05-10T12:53:18;4.45;;;2.03;;
583;SDS011;27024;54.068;12.116;2023-05-10T12:55:44;5.70;;;2.83;;
583;SDS011;27024;54.068;12.116;2023-05-10T12:58:12;8.23;;;3.47;;
583;SDS011;27024;54.068;12.116;2023-05-10T13:00:52;7.43;;;2.95;;
583;SDS011;27024;54.068;12.116;2023-05-10T13:03:20;5.13;;;3.28;;
583;SDS011;27024;54.068;12.116;2023-05-10T13:05:47;4.50;;;3.08;;
583;SDS011;27024;54.068;12.116;2023-05-10T13:08:14;5.72;;;3.30;;
583;SDS011;27024;54.068;12.116;2023-05-10T13:10:41;3.92;;;2.92;;
583;SDS011;27024;54.068;12.116;2023-05-10T13:13:07;3.92;;;2.83;;
583;SDS011;27024;54.068;12.116;2023-05-10T13:15:34;5.43;;;2.60;;
583;SDS011;27024;54.068;12.116;2023-05-10T13:18:01;4.57;;;2.55;;
583;SDS011;27024;54.068;12.116;2023-05-10T13:20:28;4.82;;;2.33;;
583;SDS011;27024;54.068;12.116;2023-05-10T13:22:55;4.82;;;3.03;;
583;SDS011;27024;54.068;12.116;2023-05-10T13:25:22;4.70;;;2.80;;
583;SDS011;27024;54.068;12.116;2023-05-10T13:27:49;5.38;;;2.55;;
583;SDS011;27024;54.068;12.116;2023-05-10T13:30:16;4.00;;;2.47;;
583;SDS011;27024;54.068;12.116;2023-05-10T13:32:43;5.85;;;2.80;;
583;SDS011;27024;54.068;12.116;2023-05-10T13:35:10;2.72;;;2.08;;
583;SDS011;27024;54.068;12.116;2023-05-10T13:37:38;4.78;;;2.63;;
583;SDS011;27024;54.068;12.116;2023-05-10T13:40:05;5.53;;;2.80;;
583;SDS011;27024;54.068;12.116;2023-05-10T13:42:33;6.47;;;2.50;;
583;SDS011;27024;54.068;12.116;2023-05-10T13:45:00;4.63;;;2.88;;
583;SDS011;27024;54.068;12.116;2023-05-10T13:47:28;3.95;;;2.58;;
583;SDS011;27024;54.068;12.116;2023-05-10T13:49:55;5.65;;;3.08;;
583;SDS011;27024;54.068;12.116;2023-05-10T13:52:22;6.97;;;3.20;;
583;SDS011;27024;54.068;12.116;2023-05-10T13:54:49;4.13;;;3.15;;
583;SDS011;27024;54.068;12.116;2023-05-10T13:57:18;4.40;;;2.67;;
583;SDS011;27024;54.068;12.116;2023-05-10T13:59:45;4.38;;;3.00;;
583;SDS011;27024;54.068;12.116;2023-05-10T14:02:12;3.88;;;2.80;;
583;SDS011;27024;54.068;12.116;2023-05-10T14:04:40;5.43;;;2.72;;
583;SDS011;27024;54.068;12.116;2023-05-10T14:07:07;6.25;;;3.13;;
583;SDS011;27024;54.068;12.116;2023-05-10T14:09:34;6.10;;;2.88;;
583;SDS011;27024;54.068;12.116;2023-05-10T14:12:01;4.47;;;2.95;;
583;SDS011;27024;54.068;12.116;2023-05-10T14:14:28;4.80;;;2.70;;
583;SDS011;27024;54.068;12.116;2023-05-10T14:16:55;4.78;;;2.60;;
583;SDS011;27024;54.068;12.116;2023-05-10T14:19:22;6.70;;;3.20;;
583;SDS011;27024;54.068;12.116;2023-05-10T14:21:49;6.65;;;3.33;;
583;SDS011;27024;54.068;12.116;2023-05-10T14:24:18;5.60;;;3.08;;
583;SDS011;27024;54.068;12.116;2023-05-10T14:26:45;4.93;;;3.28;;
583;SDS011;27024;54.068;12.116;2023-05-10T14:29:12;4.85;;;3.17;;
583;SDS011;27024;54.068;12.116;2023-05-10T14:31:38;3.70;;;2.63;;
583;SDS011;27024;54.068;12.116;2023-05-10T14:34:06;3.75;;;3.03;;
583;SDS011;27024;54.068;12.116;2023-05-10T14:36:33;6.03;;;3.47;;
583;SDS011;27024;54.068;12.116;2023-05-10T14:39:00;5.38;;;3.10;;
583;SDS011;27024;54.068;12.116;2023-05-10T14:41:27;6.13;;;2.75;;
583;SDS011;27024;54.068;12.116;2023-05-10T14:43:53;3.13;;;2.65;;
583;SDS011;27024;54.068;12.116;2023-05-10T14:46:20;4.65;;;2.85;;
583;SDS011;27024;54.068;12.116;2023-05-10T14:48:47;4.53;;;3.55;;
583;SDS011;27024;54.068;12.116;2023-05-10T14:51:14;4.28;;;2.50;;
583;SDS011;27024;54.068;12.116;2023-05-10T14:53:41;4.55;;;3.97;;
583;SDS011;27024;54.068;12.116;2023-05-10T14:56:08;3.50;;;2.92;;
583;SDS011;27024;54.068;12.116;2023-05-10T14:58:34;3.42;;;2.50;;
583;SDS011;27024;54.068;12.116;2023-05-10T15:01:01;4.68;;;3.65;;
583;SDS011;27024;54.068;12.116;2023-05-10T15:03:29;5.03;;;2.65;;
583;SDS011;27024;54.068;12.116;2023-05-10T15:05:56;6.65;;;2.58;;
583;SDS011;27024;54.068;12.116;2023-05-10T15:08:24;4.50;;;2.53;;
583;SDS011;27024;54.068;12.116;2023-05-10T15:10:51;3.78;;;2.47;;
583;SDS011;27024;54.068;12.116;2023-05-10T15:13:19;4.40;;;3.05;;
583;SDS011;27024;54.068;12.116;2023-05-10T15:15:45;4.72;;;2.30;;
583;SDS011;27024;54.068;12.116;2023-05-10T15:18:12;5.07;;;2.67;;
583;SDS011;27024;54.068;12.116;2023-05-10T15:20:39;3.60;;;2.53;;
583;SDS011;27024;54.068;12.116;2023-05-10T15:23:06;4.93;;;4.05;;
583;SDS011;27024;54.068;12.116;2023-05-10T15:25:33;3.20;;;2.80;;
583;SDS011;27024;54.068;12.116;2023-05-10T15:28:04;5.00;;;3.38;;
583;SDS011;27024;54.068;12.116;2023-05-10T15:30:31;3.30;;;2.75;;
583;SDS011;27024;54.068;12.116;2023-05-10T15:32:58;5.47;;;3.63;;
583;SDS011;27024;54.068;12.116;2023-05-10T15:35:25;4.60;;;3.00;;
583;SDS011;27024;54.068;12.116;2023-05-10T15:37:52;5.97;;;3.13;;
583;SDS011;27024;54.068;12.116;2023-05-10T15:40:20;5.25;;;3.00;;
583;SDS011;27024;54.068;12.116;2023-05-10T15:42:47;3.28;;;2.47;;
583;SDS011;27024;54.068;12.116;2023-05-10T15:45:14;5.80;;;3.50;;
583;SDS011;27024;54.068;12.116;2023-05-10T15:47:42;4.55;;;2.72;;
583;SDS011;27024;54.068;12.116;2023-05-10T15:50:10;5.93;;;3.13;;
583;SDS011;27024;54.068;12.116;2023-05-10T15:52:38;5.63;;;3.08;;
583;SDS011;27024;54.068;12.116;2023-05-10T15:55:05;4.30;;;2.80;;
583;SDS011;27024;54.068;12.116;2023-05-10T15:57:39;4.82;;;3.28;;
583;SDS011;27024;54.068;12.116;2023-05-10T16:00:07;5.60;;;4.28;;
583;SDS011;27024;54.068;12.116;2023-05-10T16:02:39;4.05;;;2.70;;
583;SDS011;27024;54.068;12.116;2023-05-10T16:05:06;6.75;;;3.20;;
583;SDS011;27024;54.068;12.116;2023-05-10T16:07:35;5.93;;;3.97;;
583;SDS011;27024;54.068;12.116;2023-05-10T16:10:02;4.40;;;3.50;;
583;SDS011;27024;54.068;12.116;2023-05-10T16:12:31;5.53;;;3.42;;
583;SDS011;27024;54.068;12.116;2023-05-10T16:14:58;5.75;;;3.72;;
583;SDS011;27024;54.068;12.116;2023-05-10T16:17:25;4.78;;;4.05;;